< < Back
Terminal Aerodrome Forecast


Current Version              Previous Versions:   1  2  3  4  5  6  7  8  9  

Terminal Aerodrome Forecast

282
FTUS44 KMOB 270543
TAFMOB
TAF
KMOB 270543Z 2706/2806 VRB05KT P6SM FEW025 SCT040 BKN250
     FM271200 20008KT 4SM SHRA SCT007 BKN025 OVC100
     FM271500 20010KT P6SM VCSH SCT025 BKN050 PROB30 2718/2720 P6SM
      -TSRA BKN025CB
     FM272100 20008KT P6SM SCT050=

Latest METAR

034
SAUS80 KWBC 271900
MTRMOB
METAR KMOB 271856Z 18010G18KT 10SM SCT028 BKN048CB BKN120 32/24 A3006
RMK AO2 SLP176 CB ALQDS MOV NE T03170239 $


USA.gov is the U.S. government's official web portal to all federal, state and local government web resources and services.